KBWI/BWI METAR and TAF weather

Enter ICAO airport designator
Station Type Date Time Source
KBWI METAR 2019/05/23 18:54 UTC NOAA

KBWI 231854Z 22005KT 10SM FEW060 BKN130 BKN250 29/19 A3001 RMK AO2 SLP159 CB DSNT NW MOV SE T02940189


Station Type Date Time Source
KBWI Decoded METAR 2019/05/23 18:54 UTC NOAA

BALTIMORE-WASHINGTON INTERNATIONAL , MD, United States (KBWI) 39-10N 076-41W 59M
May 23, 2019 - 02:54 PM EDT / 2019.05.23 1854 UTC
Wind: from the SW (220 degrees) at 6 MPH (5 KT):0
Visibility: 10 mile(s):0
Sky conditions: mostly cloudy
Weather: Cumulonimbus clouds observed
Temperature: 84.9 F (29.4 C)
Dew Point: 66.0 F (18.9 C)
Relative Humidity: 53%
Pressure (altimeter): 30.01 in. Hg (1016 hPa)
ob: KBWI 231854Z 22005KT 10SM FEW060 BKN130 BKN250 29/19 A3001 RMK AO2 SLP159 CB DSNT NW MOV SE T02940189
cycle: 19

Station Type Date Time Source
KBWI TAF 2019/05/23 19:45 UTC NOAA

TAF
AMD KBWI 231842Z 2319/2424 23010G18KT P6SM VCTS SCT050CB BKN130
TEMPO 2319/2320 VRB35KT 2SM TSRA OVC025CB
FM232000 23010G18KT 6SM SHRA VCTS BKN050CB
FM232100 23008G16KT P6SM SCT050 BKN130
FM240300 26008KT P6SM SCT050 BKN130
FM240900 30008KT P6SM FEW050
FM241200 31012G20KT P6SM FEW200

Example: see airport list